Jette Viking Hv77 — 5QEP — position and weather

sailwx.info

Track history (hours):
 
Tides and Currents Weather Stations Pressure Air Temp Water Temp Dewpoint Dewpoint Depression Visibility Wind Speed Wind Dir Waves Ship Positions

Jette Viking Hv77

Last reported at 2016-May-28 05:22 UTC. Time now 2016-May-28 10:02 UTC.
Position N 57°30' E 010°30'.

Length 16 m.

Type: Fishing. MMSI: 220046000.

Date/timePositionNaut miles runAvg speedWind from/ knotsBaromVisibWave heightAir tempDewpointWater temp
2016-May-28 05:22N 57°30' E 010°30'10 1.1
2016-May-27 20:20N 57°24' E 010°46'6 0.4
2016-May-27 03:18N 57°28' E 010°38'7 1.8
2016-May-26 23:29N 57°34' E 010°45'1 1.1
2016-May-26 22:33N 57°34' E 010°43'3 2.7
2016-May-26 21:33N 57°31' E 010°43'3 2.7
2016-May-26 20:33N 57°29' E 010°44'3 2.6
2016-May-26 19:33N 57°26' E 010°45'4 3.8
2016-May-26 18:33N 57°28' E 010°38'5 4.7
2016-May-26 17:33N 57°30' E 010°30'0 0.1
2016-May-26 15:13N 57°30' E 010°30'0 0.0
2016-May-26 14:33N 57°30' E 010°30'0 0.0
2016-May-26 10:26N 57°30' E 010°30'0 0.0
2016-May-26 08:33N 57°30' E 010°30'0 0.0
2016-May-26 07:30N 57°30' E 010°30'0 0.0
2016-May-26 06:31N 57°30' E 010°30'1 0.0
2016-May-24 03:29N 57°30' E 010°33'5 5.6
2016-May-24 02:32N 57°28' E 010°42'2 1.6
2016-May-24 01:27N 57°30' E 010°44'3 2.6
2016-May-24 00:22N 57°32' E 010°43'3 2.5
2016-May-23 23:20N 57°35' E 010°44'2 2.0
2016-May-23 22:24N 57°33' E 010°45'2 2.6
2016-May-23 21:32N 57°31' E 010°45'3 2.7
2016-May-23 20:33N 57°28' E 010°45'3 2.6
2016-May-23 19:28N 57°25' E 010°45'7 5.2
2016-May-23 18:11N 57°29' E 010°35'13 0.7
2016-May-22 22:33N 57°33' E 010°59'3 2.5
2016-May-22 21:33N 57°31' E 010°56'3 2.5
2016-May-22 20:33N 57°29' E 010°53'3 2.6
2016-May-22 19:33N 57°27' E 010°48'5 5.4
2016-May-22 18:32N 57°28' E 010°38'5 0.4
2016-May-22 06:12N 57°30' E 010°30'9 0.2
2016-May-20 02:23N 57°26' E 010°45'3 2.6
2016-May-20 01:22N 57°29' E 010°45'2 2.5
2016-May-20 00:32N 57°31' E 010°45'2 2.5
2016-May-19 23:33N 57°33' E 010°45'0 0.2
2016-May-19 22:33N 57°34' E 010°45'3 2.6
2016-May-19 21:33N 57°31' E 010°45'3 2.6
2016-May-19 20:33N 57°28' E 010°45'3 2.6
2016-May-19 19:33N 57°26' E 010°45'3 3.2
2016-May-19 18:33N 57°27' E 010°40'6 5.9
2016-May-19 17:33N 57°30' E 010°30'9 0.5
2016-May-18 22:33N 57°34' E 010°45'3 2.6
2016-May-18 21:33N 57°32' E 010°45'3 2.7
2016-May-18 20:33N 57°29' E 010°45'3 2.6
2016-May-18 19:18N 57°26' E 010°45'5 4.9
2016-May-18 18:21N 57°28' E 010°38'  
Track history (hours):
 
Tides and Currents Weather Stations Pressure Air Temp Water Temp Dewpoint Dewpoint Depression Visibility Wind Speed Wind Dir Waves Ship Positions

Jette Viking Hv77

Last reported at 2016-May-28 05:22 UTC. Time now 2016-May-28 10:02 UTC.
Position N 57°30' E 010°30'.

Length 16 m.

Type: Fishing. MMSI: 220046000.

Date/timePositionNaut miles runAvg speedWind from/ knotsBaromVisibWave heightAir tempDewpointWater temp
2016-May-28 05:22N 57°30' E 010°30'10 1.1
2016-May-27 20:20N 57°24' E 010°46'6 0.4
2016-May-27 03:18N 57°28' E 010°38'7 1.8
2016-May-26 23:29N 57°34' E 010°45'1 1.1
2016-May-26 22:33N 57°34' E 010°43'3 2.7
2016-May-26 21:33N 57°31' E 010°43'3 2.7
2016-May-26 20:33N 57°29' E 010°44'3 2.6
2016-May-26 19:33N 57°26' E 010°45'4 3.8
2016-May-26 18:33N 57°28' E 010°38'5 4.7
2016-May-26 17:33N 57°30' E 010°30'0 0.1
2016-May-26 15:13N 57°30' E 010°30'0 0.0
2016-May-26 14:33N 57°30' E 010°30'0 0.0
2016-May-26 10:26N 57°30' E 010°30'0 0.0
2016-May-26 08:33N 57°30' E 010°30'0 0.0
2016-May-26 07:30N 57°30' E 010°30'0 0.0
2016-May-26 06:31N 57°30' E 010°30'1 0.0
2016-May-24 03:29N 57°30' E 010°33'5 5.6
2016-May-24 02:32N 57°28' E 010°42'2 1.6
2016-May-24 01:27N 57°30' E 010°44'3 2.6
2016-May-24 00:22N 57°32' E 010°43'3 2.5
2016-May-23 23:20N 57°35' E 010°44'2 2.0
2016-May-23 22:24N 57°33' E 010°45'2 2.6
2016-May-23 21:32N 57°31' E 010°45'3 2.7
2016-May-23 20:33N 57°28' E 010°45'3 2.6
2016-May-23 19:28N 57°25' E 010°45'7 5.2
2016-May-23 18:11N 57°29' E 010°35'13 0.7
2016-May-22 22:33N 57°33' E 010°59'3 2.5
2016-May-22 21:33N 57°31' E 010°56'3 2.5
2016-May-22 20:33N 57°29' E 010°53'3 2.6
2016-May-22 19:33N 57°27' E 010°48'5 5.4
2016-May-22 18:32N 57°28' E 010°38'5 0.4
2016-May-22 06:12N 57°30' E 010°30'9 0.2
2016-May-20 02:23N 57°26' E 010°45'3 2.6
2016-May-20 01:22N 57°29' E 010°45'2 2.5
2016-May-20 00:32N 57°31' E 010°45'2 2.5
2016-May-19 23:33N 57°33' E 010°45'0 0.2
2016-May-19 22:33N 57°34' E 010°45'3 2.6
2016-May-19 21:33N 57°31' E 010°45'3 2.6
2016-May-19 20:33N 57°28' E 010°45'3 2.6
2016-May-19 19:33N 57°26' E 010°45'3 3.2
2016-May-19 18:33N 57°27' E 010°40'6 5.9
2016-May-19 17:33N 57°30' E 010°30'9 0.5
2016-May-18 22:33N 57°34' E 010°45'3 2.6
2016-May-18 21:33N 57°32' E 010°45'3 2.7
2016-May-18 20:33N 57°29' E 010°45'3 2.6
2016-May-18 19:18N 57°26' E 010°45'5 4.9
2016-May-18 18:21N 57°28' E 010°38'  

Dump ship's entire track history